Forside
METAR-TAF:

METAR-TAF

Lufthavne :

Ljungbyhed, Sverige

Breddekreds: 56-04N, længdekreds: 013-12E, højde: 43 m

Aktuelle vejr

Denne rapport blev lavet for 22 minutter siden, kl. 03:50 UTC
Vind 7 kt fra sydvest
Temperatur 7°C
Fugtighed 100%
Tryk 1010 hPa
Sigt: 7000 m
dis

METAR: ESTL 180350Z AUTO 22007KT 7000 BR FEW006/// SCT008/// BKN010/// 07/07 Q1010

Tid: 05:12 (04:12 UTC)

Vejrudsigter

Denne rapport blev lavet for 20 timer og 9 minutter siden, kl. 08:03 UTC
Foreløbig gælder fra 17 på 09 UTC til 17 på 12 UTC
Vind 8 kt fra syd
Sigt 10 km eller mere
Nogle få skyer i en højde af 3000 ft
Midlertidig
fra 17 på 09 UTC til 17 på 10 UTC
Sigt: 4000 m
dis

TAF: ESTL 170803Z 1709/1712 17008KT 9999 FEW030 TEMPO 1709/1710 4000 BR

Vejrobservationer og prognoser fra mere end 4000 lufthavne (METAR og TAF).

De gule og røde prikker repræsenterer de meteorologiske stationer.

Flyt musen over at se navnet på stationen.

Så klik over at se vejr observationer og prognoser.

At skifte det kort: Klik på de grønne knapper med et sort kors for at zoome ind; på den grønne knap med en bindestreg for at zoome ud; eller på de grønne pile for tilstødende kort.


METAR-TAF: